createdAt,value
2022-09-18T00:01:35.743Z,2.80
2022-09-18T00:04:05.256Z,2.50
2022-09-18T00:06:35.415Z,2.50
2022-09-18T00:09:06.846Z,2.58
2022-09-18T00:11:36.752Z,2.50
2022-09-18T00:14:06.300Z,1.92
2022-09-18T00:16:35.912Z,2.58
2022-09-18T00:19:05.488Z,2.42
2022-09-18T00:21:35.764Z,2.50
2022-09-18T00:24:05.124Z,2.72
2022-09-18T00:26:33.445Z,2.30
2022-09-18T00:29:02.274Z,2.42
2022-09-18T00:31:33.396Z,2.30
2022-09-18T00:34:05.827Z,2.25
2022-09-18T00:36:35.371Z,2.95
2022-09-18T00:39:03.743Z,3.00
2022-09-18T00:41:34.395Z,2.10
2022-09-18T00:44:34.564Z,2.10
2022-09-18T00:47:14.428Z,2.60
2022-09-18T00:49:47.512Z,2.70
2022-09-18T00:52:18.743Z,2.33
2022-09-18T00:54:50.740Z,2.22
2022-09-18T00:57:23.460Z,2.42
2022-09-18T00:59:53.886Z,2.08
2022-09-18T01:02:22.340Z,2.10
2022-09-18T01:04:52.435Z,2.10
2022-09-18T01:07:32.176Z,1.35
2022-09-18T01:10:11.344Z,1.80
2022-09-18T01:12:46.562Z,1.60
2022-09-18T01:15:23.585Z,1.85
2022-09-18T01:17:58.358Z,2.35
2022-09-18T01:20:56.104Z,2.10
2022-09-18T01:23:57.483Z,2.35
2022-09-18T01:26:40.168Z,2.70
2022-09-18T01:29:15.046Z,2.35
2022-09-18T01:31:51.015Z,2.83
2022-09-18T01:34:25.180Z,2.55
2022-09-18T01:36:58.963Z,2.50
2022-09-18T01:39:35.551Z,2.55
2022-09-18T01:42:06.150Z,2.33
2022-09-18T01:44:38.913Z,2.42
2022-09-18T01:47:12.073Z,2.65
2022-09-18T01:49:46.203Z,2.45
2022-09-18T01:52:21.006Z,2.08
2022-09-18T01:54:51.983Z,2.95
2022-09-18T01:57:24.162Z,2.70
2022-09-18T02:00:01.646Z,2.38
2022-09-18T02:02:37.558Z,2.35
2022-09-18T02:05:08.917Z,2.00
2022-09-18T02:07:46.997Z,2.40
2022-09-18T02:10:15.078Z,2.58
2022-09-18T02:12:45.925Z,2.15
2022-09-18T02:15:17.035Z,2.67
2022-09-18T02:17:57.973Z,2.75
2022-09-18T02:20:37.420Z,2.03
2022-09-18T02:23:08.041Z,2.28
2022-09-18T02:25:41.087Z,2.20
2022-09-18T02:28:11.710Z,2.28
2022-09-18T02:30:41.487Z,1.80
2022-09-18T02:33:24.770Z,2.15
2022-09-18T02:36:09.627Z,2.10
2022-09-18T02:38:46.435Z,1.98
2022-09-18T02:41:21.683Z,2.35
2022-09-18T02:43:56.070Z,2.40
2022-09-18T02:46:35.854Z,1.90
2022-09-18T02:49:11.175Z,2.10
2022-09-18T02:51:47.076Z,2.38
2022-09-18T02:54:21.915Z,2.05
2022-09-18T02:56:54.013Z,2.47
2022-09-18T02:59:25.725Z,2.10
2022-09-18T03:02:00.178Z,2.95
2022-09-18T03:04:30.783Z,2.10
2022-09-18T03:07:02.722Z,2.55
2022-09-18T03:09:32.902Z,2.80
2022-09-18T03:12:02.012Z,3.13
2022-09-18T03:14:33.366Z,2.00
2022-09-18T03:17:02.881Z,2.70
2022-09-18T03:19:32.554Z,2.55
2022-09-18T03:22:02.856Z,2.47
2022-09-18T03:24:33.496Z,2.40
2022-09-18T03:27:01.936Z,2.60
2022-09-18T03:29:30.467Z,2.45
2022-09-18T03:31:59.035Z,2.40
2022-09-18T03:34:28.817Z,3.10
2022-09-18T03:36:57.033Z,2.97
2022-09-18T03:39:25.264Z,2.33
2022-09-18T03:41:53.860Z,2.28
2022-09-18T03:44:22.166Z,2.30
2022-09-18T03:46:50.226Z,2.70
2022-09-18T03:49:23.064Z,2.30
2022-09-18T03:51:52.485Z,2.25
2022-09-18T03:54:20.432Z,2.22
2022-09-18T03:57:20.575Z,2.47
2022-09-18T04:00:06.081Z,2.35
2022-09-18T04:02:43.554Z,2.30
2022-09-18T04:05:29.974Z,2.50
2022-09-18T04:08:18.179Z,2.13
2022-09-18T04:11:00.608Z,2.92
2022-09-18T04:13:29.930Z,2.50
2022-09-18T04:16:03.693Z,3.25
2022-09-18T04:18:32.140Z,2.60
2022-09-18T04:21:02.317Z,2.95
2022-09-18T04:23:31.676Z,3.10
2022-09-18T04:26:00.531Z,3.10
2022-09-18T04:28:31.745Z,2.80
2022-09-18T04:30:59.994Z,3.05
2022-09-18T04:33:28.023Z,3.70
2022-09-18T04:35:57.093Z,3.22
2022-09-18T04:38:28.381Z,2.80
2022-09-18T04:40:58.795Z,3.55
2022-09-18T04:43:28.313Z,3.55
2022-09-18T04:45:56.699Z,3.60
2022-09-18T04:48:24.937Z,2.70
2022-09-18T04:50:54.052Z,2.30
2022-09-18T04:53:23.275Z,2.95
2022-09-18T04:55:51.173Z,3.20
2022-09-18T04:58:21.621Z,2.90
2022-09-18T05:00:55.683Z,3.47
2022-09-18T05:03:24.439Z,3.17
2022-09-18T05:05:55.028Z,3.15
2022-09-18T05:08:23.584Z,2.88
2022-09-18T05:10:52.241Z,2.78
2022-09-18T05:13:21.947Z,3.55
2022-09-18T05:16:01.980Z,3.45
2022-09-18T05:18:31.998Z,2.70
2022-09-18T05:21:02.824Z,3.17
2022-09-18T05:23:33.307Z,3.65
2022-09-18T05:26:01.259Z,4.00
2022-09-18T05:28:30.504Z,3.25
2022-09-18T05:31:00.846Z,3.55
2022-09-18T05:33:38.837Z,4.25
2022-09-18T05:36:07.242Z,3.60
2022-09-18T05:38:36.045Z,3.55
2022-09-18T05:41:06.783Z,4.10
2022-09-18T05:43:36.070Z,3.58
2022-09-18T05:46:08.394Z,4.28
2022-09-18T05:48:43.305Z,4.40
2022-09-18T05:51:11.315Z,4.07
2022-09-18T05:53:39.634Z,3.47
2022-09-18T05:56:28.856Z,3.95
2022-09-18T05:58:58.664Z,4.18
2022-09-18T06:01:26.869Z,4.50
2022-09-18T06:04:12.032Z,4.45
2022-09-18T06:06:50.194Z,5.57
2022-09-18T06:09:18.533Z,4.22
2022-09-18T06:11:46.531Z,3.65
2022-09-18T06:14:15.862Z,5.30
2022-09-18T06:16:44.061Z,4.82
2022-09-18T06:19:14.340Z,5.40
2022-09-18T06:21:45.230Z,4.00
2022-09-18T06:24:16.864Z,4.45
2022-09-18T06:27:01.939Z,4.63
2022-09-18T06:29:31.423Z,3.67
2022-09-18T06:32:06.154Z,4.40
2022-09-18T06:34:38.489Z,4.10
2022-09-18T06:37:10.583Z,4.43
2022-09-18T06:39:44.683Z,3.65
2022-09-18T06:42:31.216Z,4.90
2022-09-18T06:45:23.586Z,4.72
2022-09-18T06:47:55.174Z,5.35
2022-09-18T06:50:26.750Z,4.95
2022-09-18T06:52:56.512Z,4.90
2022-09-18T06:55:24.621Z,5.35
2022-09-18T06:57:55.933Z,4.72
2022-09-18T07:00:26.250Z,4.70
2022-09-18T07:02:58.754Z,4.68
2022-09-18T07:05:52.900Z,3.50
2022-09-18T07:08:40.775Z,4.93
2022-09-18T07:11:19.209Z,3.75
2022-09-18T07:13:48.177Z,3.97
2022-09-18T07:16:17.882Z,4.55
2022-09-18T07:18:46.685Z,4.20
2022-09-18T07:21:14.741Z,3.40
2022-09-18T07:23:45.204Z,3.90
2022-09-18T07:26:14.171Z,3.92
2022-09-18T07:28:42.231Z,3.58
2022-09-18T07:31:37.871Z,3.35
2022-09-18T07:34:09.336Z,3.70
2022-09-18T07:36:37.657Z,3.65
2022-09-18T07:39:05.679Z,3.45
2022-09-18T07:41:46.873Z,3.58
2022-09-18T07:44:15.169Z,3.47
2022-09-18T07:46:44.806Z,3.33
2022-09-18T07:49:12.918Z,3.63
2022-09-18T07:51:42.639Z,4.70
2022-09-18T07:54:11.648Z,3.40
2022-09-18T07:56:57.782Z,3.75
2022-09-18T07:59:29.746Z,3.45
2022-09-18T08:02:03.698Z,3.33
2022-09-18T08:04:33.344Z,3.28
2022-09-18T08:07:21.637Z,3.30
2022-09-18T08:10:01.205Z,2.85
2022-09-18T08:12:49.363Z,3.25
2022-09-18T08:15:46.387Z,3.38
2022-09-18T08:18:27.478Z,2.97
2022-09-18T08:21:10.880Z,2.70
2022-09-18T08:23:48.634Z,3.58
2022-09-18T08:26:21.427Z,3.10
2022-09-18T08:28:51.315Z,4.00
2022-09-18T08:31:19.390Z,3.60
2022-09-18T08:33:48.898Z,3.85
2022-09-18T08:36:17.166Z,4.03
2022-09-18T08:38:57.311Z,4.25
2022-09-18T08:41:56.951Z,4.00
2022-09-18T08:44:29.839Z,3.55
2022-09-18T08:47:04.279Z,4.40
2022-09-18T08:49:38.525Z,3.53
2022-09-18T08:52:15.233Z,4.15
2022-09-18T08:54:55.914Z,3.00
2022-09-18T08:57:47.607Z,3.67
2022-09-18T09:00:22.021Z,3.95
2022-09-18T09:03:20.873Z,4.05
2022-09-18T09:05:54.312Z,3.15
2022-09-18T09:08:47.070Z,3.58
2022-09-18T09:11:23.742Z,3.38
2022-09-18T09:14:16.975Z,3.78
2022-09-18T09:16:51.302Z,3.03
2022-09-18T09:19:31.241Z,2.63
2022-09-18T09:22:07.467Z,2.85
2022-09-18T09:24:46.977Z,2.85
2022-09-18T09:27:42.659Z,2.70
2022-09-18T09:30:34.914Z,3.15
2022-09-18T09:33:28.471Z,2.97
2022-09-18T09:36:25.446Z,2.58
2022-09-18T09:39:05.299Z,2.50
2022-09-18T09:41:41.197Z,3.25
2022-09-18T09:44:31.947Z,2.65
2022-09-18T09:47:13.779Z,2.90
2022-09-18T09:49:57.133Z,1.90
2022-09-18T09:52:28.843Z,2.40
2022-09-18T09:55:22.841Z,2.20
2022-09-18T09:58:06.784Z,2.42
2022-09-18T10:00:42.238Z,2.40
2022-09-18T10:03:28.241Z,2.05
2022-09-18T10:06:05.873Z,1.95
2022-09-18T10:08:42.536Z,2.30
2022-09-18T10:11:15.325Z,1.77
2022-09-18T10:13:52.171Z,1.75
2022-09-18T10:16:31.389Z,1.75
2022-09-18T10:19:05.872Z,2.30
2022-09-18T10:21:41.889Z,1.60
2022-09-18T10:24:25.572Z,1.80
2022-09-18T10:27:04.877Z,2.10
2022-09-18T10:29:36.234Z,1.75
2022-09-18T10:32:14.620Z,1.83
2022-09-18T10:34:52.121Z,1.60
2022-09-18T10:37:45.059Z,1.13
2022-09-18T10:40:38.818Z,1.58
2022-09-18T10:43:19.588Z,1.50
2022-09-18T10:45:53.942Z,1.58
2022-09-18T10:48:28.816Z,1.23
2022-09-18T10:50:59.606Z,1.20
2022-09-18T10:53:39.198Z,1.17
2022-09-18T10:56:19.599Z,1.00
2022-09-18T10:58:50.442Z,1.35
2022-09-18T11:01:19.054Z,1.42
2022-09-18T11:04:02.394Z,1.23
2022-09-18T11:06:36.969Z,1.67
2022-09-18T11:09:20.639Z,1.27
2022-09-18T11:11:51.479Z,1.30
2022-09-18T11:14:29.733Z,1.52
2022-09-18T11:17:04.722Z,0.85
2022-09-18T11:19:40.283Z,1.10
2022-09-18T11:22:33.626Z,1.25
2022-09-18T11:25:17.604Z,1.50
2022-09-18T11:27:49.833Z,1.70
2022-09-18T11:30:23.099Z,1.25
2022-09-18T11:32:54.547Z,1.05
2022-09-18T11:35:23.542Z,1.42
2022-09-18T11:37:54.418Z,2.10
2022-09-18T11:40:26.300Z,1.10
2022-09-18T11:42:56.135Z,1.10
2022-09-18T11:45:44.084Z,1.00
2022-09-18T11:48:25.156Z,1.10
2022-09-18T11:50:57.155Z,1.23
2022-09-18T11:53:28.774Z,1.05
2022-09-18T11:56:07.277Z,1.05
2022-09-18T11:58:44.558Z,1.45
2022-09-18T12:01:26.143Z,0.90
2022-09-18T12:03:58.993Z,1.05
2022-09-18T12:06:35.919Z,1.10
2022-09-18T12:09:12.257Z,1.20
2022-09-18T12:11:44.684Z,1.20
2022-09-18T12:14:19.546Z,1.08
2022-09-18T12:17:14.062Z,1.00
2022-09-18T12:19:49.200Z,0.95
2022-09-18T12:22:24.961Z,1.23
2022-09-18T12:24:53.100Z,0.80
2022-09-18T12:27:49.164Z,1.35
2022-09-18T12:30:19.170Z,1.13
2022-09-18T12:33:23.048Z,1.00
2022-09-18T12:36:20.058Z,1.02
2022-09-18T12:39:13.005Z,1.20
2022-09-18T12:41:54.201Z,1.63
2022-09-18T12:44:36.882Z,1.30
2022-09-18T12:47:16.794Z,1.40
2022-09-18T12:50:06.252Z,1.00
2022-09-18T12:53:00.566Z,1.00
2022-09-18T12:55:46.480Z,0.90
2022-09-18T12:58:35.027Z,1.13
2022-09-18T13:01:12.567Z,1.60
2022-09-18T13:03:42.556Z,1.17
2022-09-18T13:06:14.985Z,1.40
2022-09-18T13:08:48.784Z,0.90
2022-09-18T13:11:31.284Z,1.10
2022-09-18T13:14:05.202Z,1.20
2022-09-18T13:16:38.639Z,1.23
2022-09-18T13:19:14.114Z,1.40
2022-09-18T13:21:45.203Z,1.20
2022-09-18T13:24:17.102Z,0.90
2022-09-18T13:26:48.562Z,1.58
2022-09-18T13:29:50.564Z,1.40
2022-09-18T13:32:26.906Z,1.33
2022-09-18T13:35:04.447Z,1.50
2022-09-18T13:37:43.061Z,1.33
2022-09-18T13:40:34.257Z,1.50
2022-09-18T13:43:37.875Z,1.30
2022-09-18T13:46:13.319Z,1.27
2022-09-18T13:48:59.668Z,1.65
2022-09-18T13:51:37.714Z,1.00
2022-09-18T13:54:24.732Z,1.23
2022-09-18T13:57:23.355Z,1.02
2022-09-18T14:00:03.445Z,1.23
2022-09-18T14:02:45.206Z,1.70
2022-09-18T14:05:36.322Z,1.10
2022-09-18T14:08:17.383Z,1.20
2022-09-18T14:11:17.573Z,1.23
2022-09-18T14:13:53.936Z,1.63
2022-09-18T14:16:41.102Z,1.00
2022-09-18T14:19:29.462Z,1.10
2022-09-18T14:21:58.354Z,1.20
2022-09-18T14:24:57.557Z,1.20
2022-09-18T14:27:48.863Z,1.30
2022-09-18T14:30:23.790Z,1.05
2022-09-18T14:33:03.433Z,1.35
2022-09-18T14:35:38.252Z,1.45
2022-09-18T14:38:25.546Z,1.55
2022-09-18T14:40:59.164Z,1.20
2022-09-18T14:43:28.860Z,1.48
2022-09-18T14:45:57.163Z,1.15
2022-09-18T14:48:30.183Z,1.38
2022-09-18T14:51:04.375Z,1.23
2022-09-18T14:53:44.532Z,1.23
2022-09-18T14:56:19.204Z,1.30
2022-09-18T14:58:50.646Z,1.65
2022-09-18T15:01:26.515Z,1.45
2022-09-18T15:03:56.713Z,1.40
2022-09-18T15:06:29.727Z,1.48
2022-09-18T15:08:58.852Z,1.20
2022-09-18T15:11:37.748Z,1.60
2022-09-18T15:14:24.452Z,1.38
2022-09-18T15:16:56.776Z,1.15
2022-09-18T15:19:29.202Z,1.27
2022-09-18T15:22:01.646Z,1.23
2022-09-18T15:24:33.768Z,1.42
2022-09-18T15:27:04.307Z,1.70
2022-09-18T15:29:40.487Z,1.17
2022-09-18T15:32:09.301Z,1.42
2022-09-18T15:34:41.981Z,1.20
2022-09-18T15:37:19.157Z,1.30
2022-09-18T15:39:54.653Z,1.30
2022-09-18T15:42:34.910Z,1.38
2022-09-18T15:45:23.339Z,1.40
2022-09-18T15:47:55.753Z,1.60
2022-09-18T15:50:39.738Z,0.95
2022-09-18T15:53:29.054Z,1.50
2022-09-18T15:56:04.905Z,1.08
2022-09-18T15:58:45.060Z,1.10
2022-09-18T16:01:26.064Z,1.27
2022-09-18T16:04:11.025Z,1.08
2022-09-18T16:06:45.175Z,1.20
2022-09-18T16:09:41.074Z,1.00
2022-09-18T16:12:39.034Z,1.73
2022-09-18T16:15:20.218Z,1.15
2022-09-18T16:17:59.001Z,1.20
2022-09-18T16:20:30.758Z,1.60
2022-09-18T16:23:06.512Z,1.60
2022-09-18T16:25:37.466Z,1.33
2022-09-18T16:28:15.912Z,1.10
2022-09-18T16:30:44.312Z,1.17
2022-09-18T16:33:19.699Z,1.35
2022-09-18T16:35:48.992Z,1.00
2022-09-18T16:38:17.295Z,1.10
2022-09-18T16:40:47.169Z,1.15
2022-09-18T16:43:16.266Z,1.48
2022-09-18T16:45:45.257Z,1.35
2022-09-18T16:48:15.631Z,1.20
2022-09-18T16:50:43.756Z,1.00
2022-09-18T16:53:12.167Z,1.42
2022-09-18T16:55:44.088Z,1.20
2022-09-18T16:58:13.873Z,1.13
2022-09-18T17:00:42.008Z,1.30
2022-09-18T17:03:10.458Z,1.10
2022-09-18T17:05:41.623Z,0.90
2022-09-18T17:12:39.695Z,1.42
2022-09-18T17:15:08.928Z,1.25
2022-09-18T17:17:37.099Z,1.00
2022-09-18T17:20:06.203Z,0.90
2022-09-18T17:22:35.818Z,1.15
2022-09-18T17:25:03.933Z,0.85
2022-09-18T17:27:32.511Z,1.50
2022-09-18T17:30:00.400Z,1.05
2022-09-18T17:32:28.322Z,1.02
2022-09-18T17:34:56.572Z,0.90
2022-09-18T17:37:24.612Z,1.00
2022-09-18T17:39:54.215Z,1.30
2022-09-18T17:42:22.370Z,1.27
2022-09-18T17:44:51.886Z,1.38
2022-09-18T17:47:21.348Z,1.00
2022-09-18T17:49:49.352Z,1.23
2022-09-18T17:52:18.281Z,1.23
2022-09-18T17:54:46.288Z,1.20
2022-09-18T17:57:15.736Z,1.27
2022-09-18T17:59:45.375Z,1.35
2022-09-18T18:02:14.572Z,1.52
2022-09-18T18:04:42.562Z,1.70
2022-09-18T18:07:10.984Z,1.55
2022-09-18T18:09:39.661Z,1.55
2022-09-18T18:12:07.824Z,1.25
2022-09-18T18:14:42.008Z,1.77
2022-09-18T18:17:13.048Z,1.10
2022-09-18T18:19:41.276Z,1.50
2022-09-18T18:22:11.439Z,1.20
2022-09-18T18:24:40.537Z,1.38
2022-09-18T18:27:08.665Z,1.42
2022-09-18T18:29:41.054Z,1.63
2022-09-18T18:32:09.529Z,1.48
2022-09-18T18:34:39.516Z,1.40
2022-09-18T18:37:08.550Z,1.58
2022-09-18T18:39:36.747Z,1.40
2022-09-18T18:42:05.258Z,1.55
2022-09-18T18:44:34.591Z,1.63
2022-09-18T18:47:04.858Z,1.63
2022-09-18T18:49:34.151Z,1.15
2022-09-18T18:52:05.296Z,1.25
2022-09-18T18:54:33.454Z,1.30
2022-09-18T18:57:01.856Z,1.65
2022-09-18T18:59:30.149Z,1.60
2022-09-18T19:01:59.025Z,1.15
2022-09-18T19:04:35.387Z,1.67
2022-09-18T19:07:03.555Z,1.50
2022-09-18T19:09:58.189Z,1.50
2022-09-18T19:12:41.367Z,1.33
2022-09-18T19:15:10.824Z,1.33
2022-09-18T19:17:39.056Z,1.40
2022-09-18T19:20:09.228Z,1.35
2022-09-18T19:22:37.359Z,1.17
2022-09-18T19:25:06.389Z,1.08
2022-09-18T19:27:34.758Z,1.10
2022-09-18T19:30:03.224Z,1.58
2022-09-18T19:32:31.286Z,1.10
2022-09-18T19:34:59.316Z,1.42
2022-09-18T19:37:29.521Z,1.30
2022-09-18T19:39:57.505Z,1.20
2022-09-18T19:42:28.059Z,1.05
2022-09-18T19:45:00.923Z,1.20
2022-09-18T19:47:31.497Z,1.15
2022-09-18T19:50:02.584Z,1.35
2022-09-18T19:52:32.840Z,1.00
2022-09-18T19:55:01.012Z,1.55
2022-09-18T19:57:30.212Z,1.23
2022-09-18T19:59:59.602Z,1.35
2022-09-18T20:02:27.829Z,1.35
2022-09-18T20:04:56.901Z,1.63
2022-09-18T20:07:24.995Z,1.10
2022-09-18T20:09:54.563Z,1.00
2022-09-18T20:12:22.537Z,1.00
2022-09-18T20:14:50.865Z,1.50
2022-09-18T20:17:18.823Z,1.40
2022-09-18T20:19:47.126Z,1.00
2022-09-18T20:22:15.236Z,1.98
2022-09-18T20:24:43.643Z,1.33
2022-09-18T20:27:15.419Z,1.33
2022-09-18T20:29:43.710Z,1.38
2022-09-18T20:32:11.748Z,1.45
2022-09-18T20:34:39.955Z,1.40
2022-09-18T20:37:10.375Z,1.45
2022-09-18T20:39:38.763Z,1.60
2022-09-18T20:42:07.436Z,1.40
2022-09-18T20:44:37.126Z,1.45
2022-09-18T20:47:07.005Z,2.15
2022-09-18T20:49:36.834Z,2.63
2022-09-18T20:52:04.883Z,1.67
2022-09-18T20:54:33.618Z,2.00
2022-09-18T20:57:01.633Z,1.80
2022-09-18T20:59:31.522Z,1.60
2022-09-18T21:02:00.998Z,1.30
2022-09-18T21:04:29.220Z,1.40
2022-09-18T21:06:57.340Z,1.30
2022-09-18T21:09:28.230Z,1.40
2022-09-18T21:11:57.427Z,1.35
2022-09-18T21:14:27.304Z,1.50
2022-09-18T21:16:56.199Z,1.67
2022-09-18T21:19:26.255Z,1.17
2022-09-18T21:21:54.440Z,1.60
2022-09-18T21:24:22.964Z,1.40
2022-09-18T21:26:51.531Z,1.63
2022-09-18T21:29:21.421Z,1.58
2022-09-18T21:31:51.686Z,1.70
2022-09-18T21:34:23.451Z,1.05
2022-09-18T21:36:55.123Z,1.70
2022-09-18T21:39:23.466Z,1.52
2022-09-18T21:41:53.351Z,1.60
2022-09-18T21:44:26.986Z,1.45
2022-09-18T21:46:56.215Z,1.52
2022-09-18T21:49:24.393Z,1.70
2022-09-18T21:51:55.737Z,1.55
2022-09-18T21:54:24.766Z,1.50
2022-09-18T21:56:52.926Z,1.27
2022-09-18T21:59:22.827Z,1.30
2022-09-18T22:01:54.734Z,1.60
2022-09-18T22:04:24.143Z,1.60
2022-09-18T22:06:55.466Z,1.55
2022-09-18T22:09:25.625Z,1.25
2022-09-18T22:11:54.849Z,1.30
2022-09-18T22:14:25.148Z,1.70
2022-09-18T22:16:55.716Z,1.55
2022-09-18T22:19:23.747Z,1.13
2022-09-18T22:21:53.650Z,1.80
2022-09-18T22:24:24.399Z,1.27
2022-09-18T22:26:55.920Z,1.67
2022-09-18T22:29:26.965Z,1.50
2022-09-18T22:31:55.733Z,1.67
2022-09-18T22:34:27.396Z,1.60
2022-09-18T22:36:58.264Z,1.92
2022-09-18T22:39:26.651Z,1.85
2022-09-18T22:41:54.897Z,1.70
2022-09-18T22:44:23.172Z,1.85
2022-09-18T22:46:53.088Z,1.70
2022-09-18T22:49:22.616Z,1.50
2022-09-18T22:51:51.994Z,1.73
2022-09-18T22:54:26.497Z,1.05
2022-09-18T22:56:56.888Z,0.60
2022-09-18T22:59:27.438Z,0.82
2022-09-18T23:01:57.489Z,0.80
2022-09-18T23:04:27.953Z,0.70
2022-09-18T23:06:56.694Z,0.70
2022-09-18T23:09:27.042Z,0.60
2022-09-18T23:11:55.399Z,0.60
2022-09-18T23:14:25.891Z,0.50
2022-09-18T23:16:54.364Z,0.60
2022-09-18T23:19:26.030Z,0.50
2022-09-18T23:21:54.405Z,0.60
2022-09-18T23:24:23.199Z,0.50
2022-09-18T23:26:54.223Z,0.77
2022-09-18T23:29:24.516Z,0.50
2022-09-18T23:31:55.036Z,0.60
2022-09-18T23:34:25.161Z,0.40
2022-09-18T23:36:56.165Z,0.50
2022-09-18T23:39:26.968Z,0.50
2022-09-18T23:41:58.845Z,0.52
2022-09-18T23:44:28.563Z,0.60
2022-09-18T23:46:57.576Z,0.50
2022-09-18T23:49:25.575Z,0.40
2022-09-18T23:51:54.860Z,0.50
2022-09-18T23:54:24.310Z,0.40
2022-09-18T23:56:53.069Z,0.50
2022-09-18T23:59:24.388Z,0.50
